Time,TemperatureF,DewpointF,PressureIn,WindDirection,WindDirectionDegrees,WindSpeedMPH,WindSpeedGustMPH,Humidity,HourlyPrecipIn,Conditions,Clouds,dailyrainin,SolarRadiationWatts/m^2,SoftwareType,DateUTC
2013-06-08 00:00:00,77.5,74.0,29.96,ESE,111,6.0,6.0,89,0.00,,,0.00,0,Wunderground v.1.15,2013-06-08 04:00:00,
2013-06-08 00:30:00,77.7,74.2,29.98,SE,124,6.0,6.0,89,0.00,,,0.00,0,Wunderground v.1.15,2013-06-08 04:30:00,
2013-06-08 01:00:00,77.7,74.2,29.97,SE,125,7.0,7.0,89,0.00,,,0.00,0,Wunderground v.1.15,2013-06-08 05:00:00,
2013-06-08 01:30:00,78.0,74.5,29.97,SE,130,7.0,9.0,89,0.00,,,0.00,0,Wunderground v.1.15,2013-06-08 05:30:00,
2013-06-08 02:00:00,78.5,74.3,29.98,SSE,159,12.0,12.0,87,0.00,,,0.00,0,Wunderground v.1.15,2013-06-08 06:00:00,
2013-06-08 02:30:00,78.5,74.3,29.98,SE,137,11.0,12.0,87,0.00,,,0.00,0,Wunderground v.1.15,2013-06-08 06:30:00,
2013-06-08 03:00:00,78.6,74.1,29.98,SSE,161,11.0,11.0,86,0.00,,,0.00,0,Wunderground v.1.15,2013-06-08 07:00:00,
2013-06-08 03:30:00,78.6,74.1,29.98,SSE,160,11.0,11.0,86,0.00,,,0.00,0,Wunderground v.1.15,2013-06-08 07:30:00,
2013-06-08 04:00:00,78.5,74.6,29.97,South,169,9.0,9.0,88,0.00,,,0.00,0,Wunderground v.1.15,2013-06-08 08:00:00,
2013-06-08 04:30:00,78.5,74.6,29.96,South,178,9.0,9.0,88,0.00,,,0.00,0,Wunderground v.1.15,2013-06-08 08:30:00,
2013-06-08 05:00:00,78.6,74.7,29.97,SSW,197,10.0,10.0,88,0.00,,,0.00,0,Wunderground v.1.15,2013-06-08 09:00:00,
2013-06-08 05:30:00,78.5,75.0,29.97,South,176,9.0,9.0,89,0.00,,,0.00,0,Wunderground v.1.15,2013-06-08 09:30:00,
2013-06-08 06:00:00,78.7,75.2,29.98,South,171,6.0,6.0,89,0.00,,,0.00,0,Wunderground v.1.15,2013-06-08 10:00:00,
2013-06-08 06:30:00,78.5,75.0,29.98,SSW,194,7.0,8.0,89,0.00,,,0.00,0,Wunderground v.1.15,2013-06-08 10:30:00,
2013-06-08 07:00:00,78.7,74.8,29.99,South,173,6.0,6.0,88,0.00,,,0.00,14,Wunderground v.1.15,2013-06-08 11:00:00,
2013-06-08 07:30:00,78.9,75.4,30.00,South,173,5.0,5.0,89,0.00,,,0.00,54,Wunderground v.1.15,2013-06-08 11:30:00,
2013-06-08 08:00:00,79.1,75.2,30.00,SSE,156,7.0,7.0,88,0.00,,,0.00,84,Wunderground v.1.15,2013-06-08 12:00:00,
2013-06-08 08:30:00,79.3,75.4,30.01,SSE,164,5.0,5.0,88,0.00,,,0.00,141,Wunderground v.1.15,2013-06-08 12:30:00,
2013-06-08 09:00:00,79.6,75.4,30.01,SSE,154,7.0,7.0,87,0.00,,,0.00,195,Wunderground v.1.15,2013-06-08 13:00:00,
2013-06-08 09:30:00,80.1,75.2,30.02,SSE,161,7.0,7.0,85,0.00,,,0.00,429,Wunderground v.1.15,2013-06-08 13:30:00,
2013-06-08 10:00:00,80.3,76.1,30.03,SSE,149,8.0,12.0,87,0.00,,,0.00,417,Wunderground v.1.15,2013-06-08 14:00:00,
2013-06-08 10:30:00,80.1,75.9,30.03,SE,144,9.0,9.0,87,0.00,,,0.00,255,Wunderground v.1.15,2013-06-08 14:30:00,
2013-06-08 11:00:00,80.2,76.0,30.03,SE,138,12.0,12.0,87,0.00,,,0.00,434,Wunderground v.1.15,2013-06-08 15:00:00,
2013-06-08 11:30:00,80.6,76.4,30.04,SSE,161,11.0,12.0,87,0.00,,,0.00,619,Wunderground v.1.15,2013-06-08 15:30:00,
2013-06-08 12:00:00,80.2,76.3,30.05,SE,146,12.0,13.0,88,0.00,,,0.00,413,Wunderground v.1.15,2013-06-08 16:00:00,
2013-06-08 12:30:00,80.9,77.4,30.04,SSE,147,14.0,14.0,89,0.00,,,0.00,902,Wunderground v.1.15,2013-06-08 16:30:00,
2013-06-08 13:00:00,80.7,76.8,30.04,SSE,148,9.0,9.0,88,0.00,,,0.00,178,Wunderground v.1.15,2013-06-08 17:00:00,
2013-06-08 13:30:00,79.1,75.9,30.03,South,169,13.0,14.0,90,0.00,,,0.00,109,Wunderground v.1.15,2013-06-08 17:30:00,
2013-06-08 14:00:00,78.2,75.0,30.02,South,169,7.0,8.0,90,0.00,,,0.00,315,Wunderground v.1.15,2013-06-08 18:00:00,
2013-06-08 14:30:00,81.3,76.7,30.01,SSW,198,8.0,8.0,86,0.00,,,0.00,870,Wunderground v.1.15,2013-06-08 18:30:00,
2013-06-08 15:00:00,80.9,77.0,30.01,SSE,157,7.0,7.0,88,0.00,,,0.00,940,Wunderground v.1.15,2013-06-08 19:00:00,
2013-06-08 15:30:00,81.6,78.0,30.01,SSE,166,9.0,10.0,89,0.00,,,0.00,828,Wunderground v.1.15,2013-06-08 19:30:00,
2013-06-08 16:00:00,81.5,77.9,30.00,SSW,211,12.0,12.0,89,0.00,,,0.00,749,Wunderground v.1.15,2013-06-08 20:00:00,
2013-06-08 16:30:00,81.7,78.1,30.01,South,188,10.0,10.0,89,0.00,,,0.00,657,Wunderground v.1.15,2013-06-08 20:30:00,
2013-06-08 17:00:00,81.5,77.9,30.02,SSE,161,9.0,11.0,89,0.00,,,0.00,258,Wunderground v.1.15,2013-06-08 21:00:00,
2013-06-08 17:30:00,81.3,77.7,30.03,ESE,102,9.0,9.0,89,0.00,,,0.00,74,Wunderground v.1.15,2013-06-08 21:30:00,
2013-06-08 18:00:00,74.8,72.0,30.03,NNE,17,15.0,15.0,91,0.00,,,0.00,12,Wunderground v.1.15,2013-06-08 22:00:00,
2013-06-08 18:30:00,73.6,71.4,30.04,NNE,31,13.0,13.0,93,0.07,,,0.04,32,Wunderground v.1.15,2013-06-08 22:30:00,
2013-06-08 19:00:00,73.1,71.3,30.05,East,82,11.0,11.0,94,0.26,,,0.25,14,Wunderground v.1.15,2013-06-08 23:00:00,
2013-06-08 19:30:00,73.8,72.3,30.07,ENE,58,10.0,10.0,95,0.00,,,0.26,35,Wunderground v.1.15,2013-06-08 23:30:00,
2013-06-08 20:00:00,74.0,72.2,30.07,East,90,10.0,10.0,94,0.00,,,0.30,12,Wunderground v.1.15,2013-06-09 00:00:00,
2013-06-08 20:30:00,74.1,71.9,30.08,East,82,7.0,10.0,93,0.00,,,0.31,0,Wunderground v.1.15,2013-06-09 00:30:00,
2013-06-08 21:00:00,73.5,72.0,30.08,NNE,23,11.0,11.0,95,0.17,,,0.86,0,Wunderground v.1.15,2013-06-09 01:00:00,
2013-06-08 21:30:00,74.0,72.5,30.08,NNE,28,9.0,9.0,95,0.00,,,0.86,0,Wunderground v.1.15,2013-06-09 01:30:00,
2013-06-08 22:00:00,73.7,71.9,30.08,NE,47,6.0,8.0,94,0.00,,,0.86,0,Wunderground v.1.15,2013-06-09 02:00:00,
2013-06-08 22:30:00,73.7,71.9,30.07,ENE,74,6.0,8.0,94,0.00,,,0.86,0,Wunderground v.1.15,2013-06-09 02:30:00,
2013-06-08 23:00:00,73.4,71.3,30.08,ENE,63,6.0,6.0,93,0.00,,,0.86,0,Wunderground v.1.15,2013-06-09 03:00:00,
2013-06-08 23:30:00,74.0,70.9,30.08,East,84,7.0,7.0,90,0.00,,,0.86,0,Wunderground v.1.15,2013-06-09 03:30:00,